PWSweather.com
Personal Weather Stations
Station Observations
NORTHPOLE1
Tombur Subdivision, North Pole, AK 99705

Tombur SubdivisionNorth Pole, AK 99705

Lat: 64.774039, Lon: -147.284862

Elevation: 434

Station Type: Davis Vantage Pro 2

http://kl7ac.com

Latest ConditionsUpdated 2:05:00 AM AKST Monday, Apr 24, 2017
Currently Today's Max Today's Min Today's Average
Temperature 34.2°F1.2°C 37.3°F2.9°C 34.2°F1.2°C 35.8°F2.1°C
Dew Point 24.7°F-4.1°C 25.9°F-3.4°C 24.3°F-4.3°C 25.3°F-3.7°C
Winds 1.0 mph N1.6 kmh N 2.0 mph NNE3.2 kmh NNE - 1.5 mph 2.4 kmh
Wind Gusts 3.0 mph4.8 kmh 7.0 mph11.3 kmh - -
Humidity 68% 69% 61% 65%
Pressure 29.55 in1000.7 mb 29.56 in1001.0 mb 29.55 in1000.7 mb -
Hour Temp Dew Point Humidity Winds Wind Gusts Pressure Precip Precip Rate Daily Precip Total
02:05 AM 34.2°F1.2°C 24.7°F-4.1°C 68% 1.0 mph N1.6 kmh N 3.0 mph4.8 kmh 29.55 in1000.7 mb 0.00 in0.0 mm 0.00 in0.0 mm 0.00 in0.0 mm
02:00 AM 34.4°F1.3°C 24.9°F-3.9°C 68% Calm Calm 3.0 mph4.8 kmh 29.55 in1000.7 mb 0.00 in0.0 mm 0.00 in0.0 mm 0.00 in0.0 mm
01:55 AM 34.4°F1.3°C 24.6°F-4.1°C 67% 1.0 mph NNE1.6 kmh NNE 4.0 mph6.4 kmh 29.55 in1000.7 mb 0.00 in0.0 mm 0.00 in0.0 mm 0.00 in0.0 mm
01:50 AM 34.6°F1.4°C 25.5°F-3.6°C 69% 1.0 mph NNE1.6 kmh NNE 4.0 mph6.4 kmh 29.55 in1000.7 mb 0.00 in0.0 mm 0.00 in0.0 mm 0.00 in0.0 mm
01:45 AM 34.8°F1.6°C 25.3°F-3.7°C 68% 1.0 mph NNE1.6 kmh NNE 4.0 mph6.4 kmh 29.55 in1000.7 mb 0.00 in0.0 mm 0.00 in0.0 mm 0.00 in0.0 mm
01:40 AM 34.9°F1.6°C 25.4°F-3.7°C 68% 1.0 mph NNE1.6 kmh NNE 5.0 mph8.0 kmh 29.55 in1000.7 mb 0.00 in0.0 mm 0.00 in0.0 mm 0.00 in0.0 mm
01:35 AM 34.9°F1.6°C 24.3°F-4.3°C 65% 1.0 mph NNE1.6 kmh NNE 5.0 mph8.0 kmh 29.55 in1000.7 mb 0.00 in0.0 mm 0.00 in0.0 mm 0.00 in0.0 mm
01:30 AM 35.0°F1.7°C 24.8°F-4.0°C 66% 2.0 mph NNE3.2 kmh NNE 6.0 mph9.7 kmh 29.55 in1000.7 mb 0.00 in0.0 mm 0.00 in0.0 mm 0.00 in0.0 mm
01:25 AM 35.1°F1.7°C 24.9°F-3.9°C 66% 1.0 mph NNE1.6 kmh NNE 6.0 mph9.7 kmh 29.55 in1000.7 mb 0.00 in0.0 mm 0.00 in0.0 mm 0.00 in0.0 mm
01:20 AM 35.3°F1.8°C 25.8°F-3.4°C 68% 1.0 mph NNE1.6 kmh NNE 5.0 mph8.0 kmh 29.55 in1000.7 mb 0.00 in0.0 mm 0.00 in0.0 mm 0.00 in0.0 mm
01:15 AM 35.4°F1.9°C 25.5°F-3.6°C 67% 1.0 mph NNE1.6 kmh NNE 5.0 mph8.0 kmh 29.55 in1000.7 mb 0.00 in0.0 mm 0.00 in0.0 mm 0.00 in0.0 mm
01:10 AM 35.5°F1.9°C 25.3°F-3.7°C 66% 1.0 mph NNE1.6 kmh NNE 5.0 mph8.0 kmh 29.55 in1000.7 mb 0.00 in0.0 mm 0.00 in0.0 mm 0.00 in0.0 mm
01:05 AM 35.7°F2.1°C 25.4°F-3.7°C 66% 2.0 mph N3.2 kmh N 5.0 mph8.0 kmh 29.55 in1000.7 mb 0.00 in0.0 mm 0.00 in0.0 mm 0.00 in0.0 mm
01:00 AM 35.9°F2.2°C 25.6°F-3.6°C 66% 2.0 mph N3.2 kmh N 6.0 mph9.7 kmh 29.55 in1000.7 mb 0.00 in0.0 mm 0.00 in0.0 mm 0.00 in0.0 mm
12:55 AM 36.0°F2.2°C 25.4°F-3.7°C 65% 2.0 mph NNE3.2 kmh NNE 6.0 mph9.7 kmh 29.55 in1000.7 mb 0.00 in0.0 mm 0.00 in0.0 mm 0.00 in0.0 mm
12:50 AM 36.2°F2.3°C 25.6°F-3.6°C 65% 2.0 mph NNE3.2 kmh NNE 6.0 mph9.7 kmh 29.55 in1000.7 mb 0.00 in0.0 mm 0.00 in0.0 mm 0.00 in0.0 mm
12:45 AM 36.4°F2.4°C 25.7°F-3.5°C 65% 1.0 mph NNE1.6 kmh NNE 5.0 mph8.0 kmh 29.56 in1001.0 mb 0.00 in0.0 mm 0.00 in0.0 mm 0.00 in0.0 mm
12:40 AM 36.6°F2.6°C 25.9°F-3.4°C 65% 2.0 mph NNE3.2 kmh NNE 6.0 mph9.7 kmh 29.56 in1001.0 mb 0.00 in0.0 mm 0.00 in0.0 mm 0.00 in0.0 mm
12:35 AM 36.7°F2.6°C 25.3°F-3.7°C 63% 2.0 mph NNE3.2 kmh NNE 6.0 mph9.7 kmh 29.56 in1001.0 mb 0.00 in0.0 mm 0.00 in0.0 mm 0.00 in0.0 mm
12:30 AM 36.8°F2.7°C 25.0°F-3.9°C 62% 2.0 mph NNE3.2 kmh NNE 6.0 mph9.7 kmh 29.56 in1001.0 mb 0.00 in0.0 mm 0.00 in0.0 mm 0.00 in0.0 mm
12:25 AM 36.9°F2.7°C 24.7°F-4.1°C 61% 2.0 mph NNE3.2 kmh NNE 6.0 mph9.7 kmh 29.56 in1001.0 mb 0.00 in0.0 mm 0.00 in0.0 mm 0.00 in0.0 mm
12:20 AM 37.0°F2.8°C 25.2°F-3.8°C 62% 2.0 mph NNE3.2 kmh NNE 5.0 mph8.0 kmh 29.56 in1001.0 mb 0.00 in0.0 mm 0.00 in0.0 mm 0.00 in0.0 mm
12:15 AM 37.1°F2.8°C 25.3°F-3.7°C 62% 2.0 mph NNE3.2 kmh NNE 5.0 mph8.0 kmh 29.56 in1001.0 mb 0.00 in0.0 mm 0.00 in0.0 mm 0.00 in0.0 mm
12:10 AM 37.2°F2.9°C 25.8°F-3.4°C 63% 2.0 mph NNE3.2 kmh NNE 6.0 mph9.7 kmh 29.56 in1001.0 mb 0.00 in0.0 mm 0.00 in0.0 mm 0.00 in0.0 mm
12:05 AM 37.3°F2.9°C 25.5°F-3.6°C 62% 2.0 mph NNE3.2 kmh NNE 7.0 mph11.3 kmh 29.56 in1001.0 mb 0.00 in0.0 mm 0.00 in0.0 mm 0.00 in0.0 mm
12:00 AM 37.3°F2.9°C 25.5°F-3.6°C 62% 2.0 mph NNE3.2 kmh NNE 7.0 mph11.3 kmh 29.56 in1001.0 mb 0.00 in0.0 mm 0.00 in0.0 mm 0.00 in0.0 mm